createdAt,value
2018-09-26T00:00:10.664Z,57.55
2018-09-26T00:01:10.606Z,57.42
2018-09-26T00:02:10.562Z,57.47
2018-09-26T00:03:10.801Z,57.52
2018-09-26T00:04:11.090Z,57.56
2018-09-26T00:05:10.828Z,57.47
2018-09-26T00:06:10.743Z,57.35
2018-09-26T00:07:10.739Z,57.45
2018-09-26T00:08:10.553Z,57.48
2018-09-26T00:09:10.756Z,57.47
2018-09-26T00:10:10.720Z,57.51
2018-09-26T00:11:10.752Z,57.16
2018-09-26T00:12:10.865Z,57.94
2018-09-26T00:13:10.704Z,57.5
2018-09-26T00:14:10.596Z,57.43
2018-09-26T00:15:10.644Z,57.33
2018-09-26T00:16:10.686Z,56.96
2018-09-26T00:17:10.710Z,57.25
2018-09-26T00:18:10.948Z,57.56
2018-09-26T00:19:10.739Z,57.45
2018-09-26T00:20:10.535Z,57.48
2018-09-26T00:21:10.725Z,57.55
2018-09-26T00:22:10.743Z,57.7
2018-09-26T00:23:10.653Z,57.47
2018-09-26T00:24:10.660Z,57.34
2018-09-26T00:25:10.531Z,57.59
2018-09-26T00:26:10.741Z,57.64
2018-09-26T00:27:10.855Z,57.61
2018-09-26T00:28:10.598Z,57.61
2018-09-26T00:29:10.805Z,57.39
2018-09-26T00:30:10.896Z,57.69
2018-09-26T00:31:10.829Z,57.51
2018-09-26T00:32:10.815Z,57.9
2018-09-26T00:33:10.737Z,57.84
2018-09-26T00:34:10.547Z,57.42
2018-09-26T00:35:11.077Z,57.25
2018-09-26T00:36:11.155Z,57.49
2018-09-26T00:37:10.681Z,57.22
2018-09-26T00:38:10.862Z,57.38
2018-09-26T00:39:10.571Z,57.31
2018-09-26T00:40:10.699Z,57.64
2018-09-26T00:41:10.818Z,57.49
2018-09-26T00:42:10.992Z,57.22
2018-09-26T00:43:10.660Z,57.25
2018-09-26T00:44:10.651Z,57.53
2018-09-26T00:45:10.653Z,57.74
2018-09-26T00:46:10.662Z,57.41
2018-09-26T00:47:10.758Z,57.19
2018-09-26T00:48:10.647Z,57.42
2018-09-26T00:49:10.501Z,57.26
2018-09-26T00:50:10.502Z,57.82
2018-09-26T00:51:10.534Z,57.85
2018-09-26T00:52:10.570Z,57.55
2018-09-26T00:53:10.658Z,57.92
2018-09-26T00:54:10.667Z,57.54
2018-09-26T00:55:10.636Z,57.55
2018-09-26T00:56:10.704Z,58.09
2018-09-26T00:57:10.657Z,58.07
2018-09-26T00:58:10.790Z,57.68
2018-09-26T00:59:10.474Z,57.5
2018-09-26T01:00:10.695Z,57.92
2018-09-26T01:01:10.526Z,57.76
2018-09-26T01:02:10.505Z,58.14
2018-09-26T01:03:10.644Z,57.86
2018-09-26T01:04:10.507Z,58.06
2018-09-26T01:05:10.563Z,58.09
2018-09-26T01:06:10.951Z,58.32
2018-09-26T01:07:10.738Z,58.14
2018-09-26T01:08:10.514Z,58.13
2018-09-26T01:09:10.660Z,58.2
2018-09-26T01:10:10.590Z,58.18
2018-09-26T01:11:10.612Z,57.99
2018-09-26T01:12:10.720Z,58.01
2018-09-26T01:13:10.622Z,57.86
2018-09-26T01:14:10.697Z,58
2018-09-26T01:15:10.707Z,57.9
2018-09-26T01:16:10.478Z,57.92
2018-09-26T01:17:10.528Z,58.33
2018-09-26T01:18:10.458Z,57.74
2018-09-26T01:19:10.741Z,58.11
2018-09-26T01:20:10.750Z,58.05
2018-09-26T01:21:10.631Z,57.88
2018-09-26T01:22:10.644Z,57.69
2018-09-26T01:23:10.634Z,57.88
2018-09-26T01:24:10.789Z,57.76
2018-09-26T01:25:10.647Z,57.58
2018-09-26T01:26:10.487Z,57.7
2018-09-26T01:27:10.650Z,57.69
2018-09-26T01:28:10.485Z,57.8
2018-09-26T01:29:10.593Z,57.6
2018-09-26T01:30:10.476Z,57.61
2018-09-26T01:31:10.684Z,57.72
2018-09-26T01:32:10.598Z,57.72
2018-09-26T01:33:10.604Z,58.19
2018-09-26T01:34:10.635Z,57.87
2018-09-26T01:35:10.708Z,57.89
2018-09-26T01:36:10.655Z,58
2018-09-26T01:37:10.584Z,57.92
2018-09-26T01:38:10.652Z,57.74
2018-09-26T01:39:10.528Z,57.79
2018-09-26T01:40:10.502Z,57.86
2018-09-26T01:41:10.462Z,57.95
2018-09-26T01:42:10.654Z,58.02
2018-09-26T01:43:10.488Z,57.82
2018-09-26T01:44:10.702Z,57.61
2018-09-26T01:45:10.647Z,57.8
2018-09-26T01:46:10.575Z,57.94
2018-09-26T01:47:10.615Z,57.64
2018-09-26T01:48:10.896Z,57.72
2018-09-26T01:49:10.469Z,57.92
2018-09-26T01:50:10.693Z,58.16
2018-09-26T01:51:10.797Z,58.19
2018-09-26T01:52:10.889Z,58.09
2018-09-26T01:53:10.492Z,58.21
2018-09-26T01:54:10.402Z,58.38
2018-09-26T01:55:10.586Z,57.99
2018-09-26T01:56:10.724Z,58.11
2018-09-26T01:57:10.924Z,58.14
2018-09-26T01:58:10.466Z,58.12
2018-09-26T01:59:10.628Z,58.32
2018-09-26T02:00:10.389Z,58.39
2018-09-26T02:01:10.575Z,58.24
2018-09-26T02:02:10.557Z,58.73
2018-09-26T02:03:10.524Z,58.75
2018-09-26T02:04:10.395Z,58.73
2018-09-26T02:05:10.435Z,58.54
2018-09-26T02:06:10.424Z,58.37
2018-09-26T02:07:10.415Z,58.42
2018-09-26T02:08:10.562Z,58.44
2018-09-26T02:09:10.564Z,58.62
2018-09-26T02:10:10.553Z,58.46
2018-09-26T02:11:10.566Z,58.64
2018-09-26T02:12:10.559Z,58.39
2018-09-26T02:13:10.538Z,58.54
2018-09-26T02:14:10.399Z,58.65
2018-09-26T02:15:10.549Z,59.15
2018-09-26T02:16:10.411Z,59.08
2018-09-26T02:17:10.495Z,58.72
2018-09-26T02:18:10.562Z,58.86
2018-09-26T02:19:10.532Z,58.7
2018-09-26T02:20:10.556Z,58.53
2018-09-26T02:21:10.928Z,58.75
2018-09-26T02:22:10.547Z,58.45
2018-09-26T02:23:10.384Z,58.34
2018-09-26T02:24:10.740Z,59.25
2018-09-26T02:25:10.583Z,59.49
2018-09-26T02:26:10.582Z,58.82
2018-09-26T02:27:10.477Z,59
2018-09-26T02:28:10.599Z,58.82
2018-09-26T02:29:10.468Z,58.68
2018-09-26T02:30:10.521Z,58.75
2018-09-26T02:31:10.486Z,58.65
2018-09-26T02:32:10.693Z,58.65
2018-09-26T02:33:10.558Z,58.79
2018-09-26T02:34:10.735Z,58.77
2018-09-26T02:35:10.439Z,58.76
2018-09-26T02:36:10.549Z,58.6
2018-09-26T02:37:10.688Z,59.07
2018-09-26T02:38:10.567Z,58.75
2018-09-26T02:39:10.334Z,59.03
2018-09-26T02:40:10.343Z,59.07
2018-09-26T02:41:10.412Z,58.67
2018-09-26T02:42:10.489Z,59.27
2018-09-26T02:43:10.501Z,59.28
2018-09-26T02:44:10.676Z,59.3
2018-09-26T02:45:10.627Z,59.24
2018-09-26T02:46:10.590Z,59.44
2018-09-26T02:47:10.554Z,58.97
2018-09-26T02:48:10.575Z,59.05
2018-09-26T02:49:10.480Z,59.71
2018-09-26T02:50:10.949Z,59.29
2018-09-26T02:51:10.452Z,59.39
2018-09-26T02:52:10.601Z,59.21
2018-09-26T02:53:10.469Z,59.29
2018-09-26T02:54:10.510Z,59.52
2018-09-26T02:55:10.573Z,59.37
2018-09-26T02:56:10.367Z,59.18
2018-09-26T02:57:10.485Z,59.67
2018-09-26T02:58:10.492Z,59.4
2018-09-26T02:59:10.349Z,59.38
2018-09-26T03:00:10.559Z,59.7
2018-09-26T03:01:10.524Z,59.65
2018-09-26T03:02:10.550Z,59.28
2018-09-26T03:03:10.514Z,59.56
2018-09-26T03:04:10.544Z,59.46
2018-09-26T03:05:10.352Z,59.53
2018-09-26T03:06:10.390Z,59.54
2018-09-26T03:07:10.483Z,59.57
2018-09-26T03:08:10.559Z,59.56
2018-09-26T03:09:10.478Z,59.96
2018-09-26T03:10:10.463Z,59.34
2018-09-26T03:11:10.432Z,59.96
2018-09-26T03:12:10.421Z,59.69
2018-09-26T03:13:10.328Z,59.7
2018-09-26T03:14:10.641Z,59.85
2018-09-26T03:15:10.394Z,59.83
2018-09-26T03:16:10.494Z,60.2
2018-09-26T03:17:10.832Z,59.74
2018-09-26T03:18:11.119Z,59.84
2018-09-26T03:19:10.419Z,59.68
2018-09-26T03:20:10.406Z,60.06
2018-09-26T03:21:10.594Z,60.22
2018-09-26T03:22:10.439Z,60.01
2018-09-26T03:23:10.599Z,59.92
2018-09-26T03:24:10.477Z,60.23
2018-09-26T03:25:10.283Z,59.88
2018-09-26T03:26:10.545Z,59.91
2018-09-26T03:27:10.454Z,59.85
2018-09-26T03:28:10.423Z,59.87
2018-09-26T03:29:10.489Z,60.23
2018-09-26T03:30:10.606Z,59.9
2018-09-26T03:31:10.421Z,60.07
2018-09-26T03:32:10.438Z,60.26
2018-09-26T03:33:10.272Z,60.46
2018-09-26T03:34:10.735Z,60.39
2018-09-26T03:35:10.277Z,60.21
2018-09-26T03:36:10.493Z,60.09
2018-09-26T03:37:10.469Z,60.13
2018-09-26T03:38:10.304Z,60.16
2018-09-26T03:39:10.298Z,60.17
2018-09-26T03:40:10.418Z,60.15
2018-09-26T03:41:10.260Z,60.58
2018-09-26T03:42:10.247Z,60.34
2018-09-26T03:43:10.258Z,60.9
2018-09-26T03:44:10.416Z,60.96
2018-09-26T03:45:10.503Z,60.55
2018-09-26T03:46:10.770Z,60.51
2018-09-26T03:47:10.251Z,60.15
2018-09-26T03:48:10.596Z,60.43
2018-09-26T03:49:10.352Z,60.84
2018-09-26T03:50:10.406Z,60.46
2018-09-26T03:51:10.438Z,60.15
2018-09-26T03:52:10.396Z,60.42
2018-09-26T03:53:10.330Z,61.01
2018-09-26T03:54:10.359Z,61.07
2018-09-26T03:55:10.793Z,60.88
2018-09-26T03:56:10.397Z,61.11
2018-09-26T03:57:10.464Z,60.8
2018-09-26T03:58:10.435Z,61.09
2018-09-26T03:59:10.447Z,60.44
2018-09-26T04:00:10.527Z,60.91
2018-09-26T04:01:10.518Z,60.66
2018-09-26T04:02:10.234Z,60.76
2018-09-26T04:03:10.295Z,60.79
2018-09-26T04:04:10.405Z,60.27
2018-09-26T04:05:10.325Z,60.44
2018-09-26T04:06:10.367Z,60.81
2018-09-26T04:07:10.365Z,60.82
2018-09-26T04:08:10.286Z,60.29
2018-09-26T04:09:10.406Z,60.2
2018-09-26T04:10:10.431Z,60.37
2018-09-26T04:11:10.425Z,59.93
2018-09-26T04:12:10.466Z,60.19
2018-09-26T04:13:10.469Z,59.99
2018-09-26T04:14:10.453Z,60.03
2018-09-26T04:15:11.067Z,60.02
2018-09-26T04:16:10.435Z,60.22
2018-09-26T04:17:10.265Z,60.07
2018-09-26T04:18:10.449Z,59.99
2018-09-26T04:19:10.385Z,59.7
2018-09-26T04:20:10.367Z,59.79
2018-09-26T04:21:10.259Z,59.71
2018-09-26T04:22:10.434Z,60.2
2018-09-26T04:23:10.405Z,59.64
2018-09-26T04:24:10.344Z,59.53
2018-09-26T04:25:10.488Z,59.63
2018-09-26T04:26:10.538Z,59.55
2018-09-26T04:27:10.467Z,59.75
2018-09-26T04:28:10.321Z,59.73
2018-09-26T04:29:10.378Z,59.42
2018-09-26T04:30:10.241Z,59.67
2018-09-26T04:31:10.311Z,59.67
2018-09-26T04:32:10.427Z,59.5
2018-09-26T04:33:10.583Z,59.33
2018-09-26T04:34:10.354Z,59.64
2018-09-26T04:35:10.403Z,59.32
2018-09-26T04:36:10.653Z,59.59
2018-09-26T04:37:10.211Z,59.39
2018-09-26T04:38:10.401Z,59.52
2018-09-26T04:39:10.459Z,59.46
2018-09-26T04:40:10.327Z,59.53
2018-09-26T04:41:10.214Z,59.35
2018-09-26T04:42:10.455Z,59.24
2018-09-26T04:43:10.364Z,59.65
2018-09-26T04:44:10.202Z,59.5
2018-09-26T04:45:10.187Z,59.55
2018-09-26T04:46:10.318Z,59.61
2018-09-26T04:47:10.175Z,59.47
2018-09-26T04:48:10.312Z,59.69
2018-09-26T04:49:10.149Z,59.94
2018-09-26T04:50:10.321Z,60.21
2018-09-26T04:51:10.229Z,60.03
2018-09-26T04:52:10.138Z,60.15
2018-09-26T04:53:10.171Z,59.78
2018-09-26T04:54:10.385Z,59.98
2018-09-26T04:55:10.306Z,60.23
2018-09-26T04:56:10.585Z,60.05
2018-09-26T04:57:10.305Z,59.98
2018-09-26T04:58:10.228Z,59.99
2018-09-26T04:59:10.285Z,60.17
2018-09-26T05:00:10.293Z,60.26
2018-09-26T05:01:10.312Z,60.34
2018-09-26T05:02:10.147Z,60.49
2018-09-26T05:03:10.163Z,60.43
2018-09-26T05:04:10.132Z,60.17
2018-09-26T05:05:10.170Z,60.5
2018-09-26T05:06:10.487Z,60.79
2018-09-26T05:07:10.366Z,60.31
2018-09-26T05:08:10.469Z,60.85
2018-09-26T05:09:10.367Z,60.99
2018-09-26T05:10:10.304Z,60.76
2018-09-26T05:11:10.605Z,60.53
2018-09-26T05:12:10.316Z,60.67
2018-09-26T05:13:10.465Z,60.77
2018-09-26T05:14:10.334Z,60.76
2018-09-26T05:15:10.302Z,60.8
2018-09-26T05:16:10.379Z,60.81
2018-09-26T05:17:10.190Z,60.92
2018-09-26T05:18:10.250Z,60.59
2018-09-26T05:19:10.296Z,61.03
2018-09-26T05:20:10.225Z,60.67
2018-09-26T05:21:10.483Z,60.82
2018-09-26T05:22:10.278Z,60.97
2018-09-26T05:23:10.391Z,60.89
2018-09-26T05:24:10.296Z,60.89
2018-09-26T05:25:10.505Z,61.05
2018-09-26T05:26:10.411Z,60.71
2018-09-26T05:27:10.284Z,61.1
2018-09-26T05:28:10.118Z,61.01
2018-09-26T05:29:10.206Z,61.31
2018-09-26T05:30:10.315Z,61.03
2018-09-26T05:31:10.360Z,61.26
2018-09-26T05:32:10.456Z,60.94
2018-09-26T05:33:10.281Z,61.1
2018-09-26T05:34:10.273Z,60.92
2018-09-26T05:35:10.420Z,60.84
2018-09-26T05:36:10.252Z,61.34
2018-09-26T05:37:10.658Z,61.52
2018-09-26T05:38:10.079Z,61.24
2018-09-26T05:39:10.113Z,61.37
2018-09-26T05:40:10.719Z,61.47
2018-09-26T05:41:10.101Z,61.44
2018-09-26T05:42:10.232Z,61.36
2018-09-26T05:43:10.329Z,60.98
2018-09-26T05:44:10.358Z,60.79
2018-09-26T05:45:10.293Z,60.82
2018-09-26T05:46:10.404Z,60.85
2018-09-26T05:47:10.355Z,61.06
2018-09-26T05:48:10.339Z,60.91
2018-09-26T05:49:10.277Z,60.65
2018-09-26T05:50:10.137Z,60.85
2018-09-26T05:51:10.357Z,60.34
2018-09-26T05:52:10.083Z,60.69
2018-09-26T05:53:10.209Z,60.43
2018-09-26T05:54:10.381Z,60.63
2018-09-26T05:55:10.223Z,60.77
2018-09-26T05:56:10.508Z,60.94
2018-09-26T05:57:10.260Z,60.47
2018-09-26T05:58:10.100Z,60.97
2018-09-26T05:59:10.030Z,60.65
2018-09-26T06:00:10.347Z,60.98
2018-09-26T06:01:10.159Z,60.66
2018-09-26T06:02:10.229Z,60.47
2018-09-26T06:03:10.281Z,60.72
2018-09-26T06:04:10.142Z,60.83
2018-09-26T06:05:10.073Z,60.64
2018-09-26T06:06:10.202Z,60.6
2018-09-26T06:07:10.042Z,60.49
2018-09-26T06:08:10.257Z,60.53
2018-09-26T06:09:10.233Z,60.24
2018-09-26T06:10:10.388Z,60.29
2018-09-26T06:11:10.257Z,60.17
2018-09-26T06:12:10.204Z,60.42
2018-09-26T06:13:10.182Z,60.49
2018-09-26T06:14:10.215Z,60.36
2018-09-26T06:15:10.189Z,60.43
2018-09-26T06:16:10.061Z,60.51
2018-09-26T06:17:10.032Z,60.3
2018-09-26T06:18:10.181Z,60
2018-09-26T06:19:10.206Z,60.25
2018-09-26T06:20:10.230Z,60.32
2018-09-26T06:21:10.165Z,60.28
2018-09-26T06:22:10.186Z,59.98
2018-09-26T06:23:10.024Z,60.21
2018-09-26T06:24:10.179Z,59.87
2018-09-26T06:25:10.190Z,60.32
2018-09-26T06:26:10.275Z,59.96
2018-09-26T06:27:09.999Z,59.97
2018-09-26T06:28:11.564Z,60.09
2018-09-26T06:29:10.044Z,60.31
2018-09-26T06:30:09.999Z,60.49
2018-09-26T06:31:10.154Z,60.13
2018-09-26T06:32:10.036Z,60.35
2018-09-26T06:33:10.043Z,60.23
2018-09-26T06:34:10.287Z,60.07
2018-09-26T06:35:10.159Z,60.2
2018-09-26T06:36:10.068Z,60.13
2018-09-26T06:37:10.034Z,60.11
2018-09-26T06:38:10.079Z,60.11
2018-09-26T06:39:10.177Z,59.99
2018-09-26T06:40:10.146Z,60.13
2018-09-26T06:41:09.951Z,59.96
2018-09-26T06:42:10.171Z,59.56
2018-09-26T06:43:10.183Z,59.66
2018-09-26T06:44:10.015Z,59.73
2018-09-26T06:45:10.258Z,59.95
2018-09-26T06:46:10.172Z,59.6
2018-09-26T06:47:09.982Z,59.52
2018-09-26T06:48:10.310Z,59.9
2018-09-26T06:49:10.138Z,59.82
2018-09-26T06:50:10.124Z,59.89
2018-09-26T06:51:10.049Z,59.79
2018-09-26T06:52:10.188Z,60.1
2018-09-26T06:53:10.051Z,59.59
2018-09-26T06:54:10.190Z,59.76
2018-09-26T06:55:10.457Z,59.55
2018-09-26T06:56:10.635Z,59.4
2018-09-26T06:57:10.132Z,59.45
2018-09-26T06:58:10.171Z,59.28
2018-09-26T06:59:10.967Z,58.99
2018-09-26T07:00:10.056Z,59.16
2018-09-26T07:01:10.118Z,59.08
2018-09-26T07:02:09.954Z,58.78
2018-09-26T07:03:10.386Z,59.07
2018-09-26T07:04:10.059Z,59.11
2018-09-26T07:05:10.097Z,58.9
2018-09-26T07:06:10.514Z,58.58
2018-09-26T07:07:10.169Z,58.59
2018-09-26T07:08:09.981Z,58.8
2018-09-26T07:09:09.958Z,58.87
2018-09-26T07:10:10.028Z,58.75
2018-09-26T07:11:10.142Z,58.76
2018-09-26T07:12:10.156Z,58.67
2018-09-26T07:13:10.049Z,58.81
2018-09-26T07:14:10.150Z,58.45
2018-09-26T07:15:10.185Z,58.55
2018-09-26T07:16:10.118Z,58.33
2018-09-26T07:17:09.979Z,57.79
2018-09-26T07:18:10.033Z,57.94
2018-09-26T07:19:10.136Z,57.77
2018-09-26T07:20:09.942Z,58.03
2018-09-26T07:21:10.221Z,57.69
2018-09-26T07:22:10.260Z,57.47
2018-09-26T07:23:10.102Z,57.37
2018-09-26T07:24:10.163Z,57.38
2018-09-26T07:25:09.989Z,57.17
2018-09-26T07:26:10.093Z,57.52
2018-09-26T07:27:10.190Z,57.54
2018-09-26T07:28:10.186Z,57.48
2018-09-26T07:29:10.098Z,57.48
2018-09-26T07:30:10.090Z,57.04
2018-09-26T07:31:10.110Z,56.72
2018-09-26T07:32:10.135Z,56.88
2018-09-26T07:33:10.091Z,57.27
2018-09-26T07:34:09.938Z,56.37
2018-09-26T07:35:10.086Z,56.61
2018-09-26T07:36:10.076Z,57.06
2018-09-26T07:37:10.355Z,56.86
2018-09-26T07:38:09.932Z,57.15
2018-09-26T07:39:10.102Z,56.74
2018-09-26T07:40:09.956Z,57.06
2018-09-26T07:41:10.063Z,56.71
2018-09-26T07:42:09.913Z,56.31
2018-09-26T07:43:10.064Z,56.56
2018-09-26T07:44:10.107Z,56.45
2018-09-26T07:45:10.112Z,56.43
2018-09-26T07:46:09.936Z,56.52
2018-09-26T07:47:10.058Z,56.47
2018-09-26T07:48:10.088Z,56.63
2018-09-26T07:49:10.137Z,57.15
2018-09-26T07:50:10.083Z,56.5
2018-09-26T07:51:10.058Z,56.93
2018-09-26T07:52:09.916Z,56.69
2018-09-26T07:53:10.153Z,56.8
2018-09-26T07:54:10.085Z,56.43
2018-09-26T07:55:10.237Z,56.73
2018-09-26T07:56:10.255Z,56.4
2018-09-26T07:57:09.955Z,56.63
2018-09-26T07:58:10.115Z,56.83
2018-09-26T07:59:10.917Z,56.35
2018-09-26T08:00:09.982Z,56.87
2018-09-26T08:01:10.185Z,56.55
2018-09-26T08:02:10.159Z,56.34
2018-09-26T08:03:10.199Z,56.28
2018-09-26T08:04:10.204Z,56.04
2018-09-26T08:05:10.029Z,56.44
2018-09-26T08:06:10.039Z,56.04
2018-09-26T08:07:10.231Z,56.15
2018-09-26T08:08:10.203Z,55.99
2018-09-26T08:09:10.242Z,56.5
2018-09-26T08:10:10.197Z,56.9
2018-09-26T08:11:10.155Z,56.13
2018-09-26T08:12:10.083Z,56.15
2018-09-26T08:13:09.882Z,56.35
2018-09-26T08:14:09.939Z,56.18
2018-09-26T08:15:10.021Z,55.78
2018-09-26T08:16:10.087Z,54.95
2018-09-26T08:17:09.933Z,55.39
2018-09-26T08:18:10.044Z,55.52
2018-09-26T08:19:10.041Z,55.21
2018-09-26T08:20:10.110Z,55.22
2018-09-26T08:21:10.094Z,54.62
2018-09-26T08:22:10.099Z,54.98
2018-09-26T08:23:09.939Z,54.99
2018-09-26T08:24:10.092Z,54.24
2018-09-26T08:25:09.897Z,54.49
2018-09-26T08:26:09.989Z,54.01
2018-09-26T08:27:09.928Z,54.45
2018-09-26T08:28:10.276Z,54.47
2018-09-26T08:29:10.009Z,55
2018-09-26T08:30:11.286Z,55.03
2018-09-26T08:31:09.993Z,55.37
2018-09-26T08:32:09.900Z,55.43
2018-09-26T08:33:10.077Z,54.4
2018-09-26T08:34:10.140Z,54.04
2018-09-26T08:35:10.226Z,53.86
2018-09-26T08:36:10.094Z,53.88
2018-09-26T08:37:10.049Z,53.49
2018-09-26T08:38:10.045Z,53.51
2018-09-26T08:39:09.944Z,53.88
2018-09-26T08:40:10.067Z,53.49
2018-09-26T08:41:09.929Z,54.23
2018-09-26T08:42:10.084Z,53.59
2018-09-26T08:43:09.995Z,53.46
2018-09-26T08:44:10.049Z,52.98
2018-09-26T08:45:09.999Z,53.53
2018-09-26T08:46:09.919Z,53.51
2018-09-26T08:47:09.928Z,53.01
2018-09-26T08:48:10.107Z,53.29
2018-09-26T08:49:10.090Z,53.48
2018-09-26T08:50:09.801Z,52.95
2018-09-26T08:51:09.885Z,52.31
2018-09-26T08:52:09.973Z,51.87
2018-09-26T08:53:10.165Z,51.94
2018-09-26T08:54:09.991Z,52.51
2018-09-26T08:55:09.962Z,52.19
2018-09-26T08:56:09.975Z,52.12
2018-09-26T08:57:10.170Z,52.07
2018-09-26T08:58:09.906Z,51.81
2018-09-26T08:59:09.982Z,51.98
2018-09-26T09:00:10.022Z,52.15
2018-09-26T09:01:09.777Z,51.94
2018-09-26T09:02:09.804Z,51.96
2018-09-26T09:03:09.957Z,52.64
2018-09-26T09:04:09.823Z,52.15
2018-09-26T09:05:09.883Z,52.21
2018-09-26T09:06:09.857Z,51.54
2018-09-26T09:07:09.788Z,51.03
2018-09-26T09:08:09.814Z,51.62
2018-09-26T09:09:09.956Z,52.07
2018-09-26T09:10:09.895Z,52.07
2018-09-26T09:11:09.977Z,51
2018-09-26T09:12:10.171Z,51.91
2018-09-26T09:13:10.482Z,51.74
2018-09-26T09:14:09.916Z,51.74
2018-09-26T09:15:10.187Z,51.46
2018-09-26T09:16:10.627Z,51.38
2018-09-26T09:17:10.103Z,49.83
2018-09-26T09:18:10.209Z,50.73
2018-09-26T09:19:11.252Z,50.34
2018-09-26T09:20:10.188Z,50.68
2018-09-26T09:21:10.234Z,50.9
2018-09-26T09:22:10.239Z,50.92
2018-09-26T09:23:10.058Z,51.1
2018-09-26T09:24:10.164Z,50.8
2018-09-26T09:25:10.159Z,50.71
2018-09-26T09:26:10.285Z,50.22
2018-09-26T09:27:10.207Z,49.9
2018-09-26T09:28:10.074Z,50.28
2018-09-26T09:29:10.199Z,50.46
2018-09-26T09:30:10.187Z,49.16
2018-09-26T09:31:09.884Z,49.91
2018-09-26T09:32:10.400Z,50.32
2018-09-26T09:33:10.106Z,50.06
2018-09-26T09:34:10.438Z,49.64
2018-09-26T09:35:09.764Z,49.25
2018-09-26T09:36:10.121Z,49.22
2018-09-26T09:37:10.029Z,48.8
2018-09-26T09:38:09.986Z,48.89
2018-09-26T09:39:09.944Z,48.79
2018-09-26T09:40:10.070Z,49.53
2018-09-26T09:41:10.163Z,50.62
2018-09-26T09:42:11.093Z,50.62
2018-09-26T09:43:10.173Z,49.51
2018-09-26T09:44:10.197Z,49.07
2018-09-26T09:45:10.109Z,49.42
2018-09-26T09:46:09.893Z,49.67
2018-09-26T09:47:09.887Z,50.04
2018-09-26T09:48:10.109Z,49.32
2018-09-26T09:49:09.904Z,49.1
2018-09-26T09:50:10.050Z,48.99
2018-09-26T09:51:10.128Z,49.83
2018-09-26T09:52:09.982Z,50.14
2018-09-26T09:53:09.714Z,49.18
2018-09-26T09:54:10.047Z,49.03
2018-09-26T09:55:10.041Z,49.33
2018-09-26T09:56:10.014Z,49.26
2018-09-26T09:57:10.170Z,48.99
2018-09-26T09:58:10.193Z,49.83
2018-09-26T09:59:09.976Z,49.3
2018-09-26T10:00:10.814Z,50.05
2018-09-26T10:01:09.884Z,49.49
2018-09-26T10:02:10.081Z,49.51
2018-09-26T10:03:10.063Z,49.82
2018-09-26T10:04:10.043Z,49.23
2018-09-26T10:05:09.861Z,48.22
2018-09-26T10:06:09.910Z,48.51
2018-09-26T10:07:09.963Z,47.73
2018-09-26T10:08:09.910Z,48.56
2018-09-26T10:09:10.160Z,48.45
2018-09-26T10:10:10.183Z,48.53
2018-09-26T10:11:09.863Z,48.32
2018-09-26T10:12:12.224Z,47.89
2018-09-26T10:13:09.957Z,47.32
2018-09-26T10:14:10.124Z,46.9
2018-09-26T10:15:10.094Z,47.08
2018-09-26T10:16:10.116Z,46.22
2018-09-26T10:17:09.688Z,45.82
2018-09-26T10:18:10.114Z,46.37
2018-09-26T10:19:09.736Z,47.11
2018-09-26T10:20:09.798Z,48.24
2018-09-26T10:21:09.881Z,47.79
2018-09-26T10:22:09.858Z,46.83
2018-09-26T10:23:10.066Z,46.62
2018-09-26T10:24:10.153Z,46.68
2018-09-26T10:25:10.125Z,46.06
2018-09-26T10:26:10.098Z,46.69
2018-09-26T10:27:10.081Z,47.45
2018-09-26T10:28:09.882Z,47.13
2018-09-26T10:29:09.802Z,46.29
2018-09-26T10:30:09.892Z,45.55
2018-09-26T10:31:09.885Z,46.41
2018-09-26T10:32:09.870Z,47.05
2018-09-26T10:33:10.128Z,46.11
2018-09-26T10:34:09.920Z,46.73
2018-09-26T10:35:09.960Z,46.81
2018-09-26T10:36:09.716Z,46.36
2018-09-26T10:37:10.058Z,46.31
2018-09-26T10:38:09.975Z,46.61
2018-09-26T10:39:10.060Z,45.16
2018-09-26T10:40:10.486Z,45.29
2018-09-26T10:41:09.675Z,45.87
2018-09-26T10:42:09.927Z,45.94
2018-09-26T10:43:09.963Z,45.64
2018-09-26T10:44:09.642Z,44.96
2018-09-26T10:45:10.202Z,45.3
2018-09-26T10:46:09.879Z,45.53
2018-09-26T10:47:09.785Z,45.61
2018-09-26T10:48:10.112Z,46.19
2018-09-26T10:49:09.985Z,45.68
2018-09-26T10:50:09.971Z,46.5
2018-09-26T10:51:10.359Z,45.64
2018-09-26T10:52:09.923Z,44.76
2018-09-26T10:53:09.647Z,44.61
2018-09-26T10:54:09.884Z,44.76
2018-09-26T10:55:09.718Z,45.66
2018-09-26T10:56:09.781Z,44.04
2018-09-26T10:57:09.988Z,44.43
2018-09-26T10:58:09.890Z,44.8
2018-09-26T10:59:09.929Z,44.79
2018-09-26T11:00:10.095Z,44.94
2018-09-26T11:01:09.815Z,45.11
2018-09-26T11:02:10.064Z,45.24
2018-09-26T11:03:10.131Z,44.26
2018-09-26T11:04:09.991Z,45.31
2018-09-26T11:05:09.767Z,44.96
2018-09-26T11:06:09.723Z,45.57
2018-09-26T11:07:09.619Z,45.58
2018-09-26T11:08:10.173Z,45.39
2018-09-26T11:09:10.058Z,45.43
2018-09-26T11:10:09.796Z,45.01
2018-09-26T11:11:09.859Z,43.94
2018-09-26T11:12:10.072Z,43.13
2018-09-26T11:13:09.872Z,44.06
2018-09-26T11:14:09.894Z,43.31
2018-09-26T11:15:09.794Z,42.52
2018-09-26T11:16:09.940Z,43.97
2018-09-26T11:17:09.899Z,44.47
2018-09-26T11:18:09.704Z,44.51
2018-09-26T11:19:09.813Z,43.25
2018-09-26T11:20:09.672Z,42.57
2018-09-26T11:21:09.772Z,42.33
2018-09-26T11:22:09.900Z,41.92
2018-09-26T11:23:09.620Z,41.78
2018-09-26T11:24:09.749Z,42.66
2018-09-26T11:25:09.854Z,43.6
2018-09-26T11:26:09.789Z,42.85
2018-09-26T11:27:10.173Z,42.92
2018-09-26T11:28:09.928Z,43.22
2018-09-26T11:29:09.764Z,42.81
2018-09-26T11:30:10.097Z,41.9
2018-09-26T11:31:09.796Z,42.73
2018-09-26T11:32:09.967Z,43.11
2018-09-26T11:33:09.864Z,42.48
2018-09-26T11:34:09.618Z,42.55
2018-09-26T11:35:09.656Z,41.93
2018-09-26T11:36:09.862Z,41.77
2018-09-26T11:37:10.063Z,42.29
2018-09-26T11:38:09.788Z,41.51
2018-09-26T11:39:09.849Z,41.3
2018-09-26T11:40:09.790Z,41.49
2018-09-26T11:41:09.666Z,41.41
2018-09-26T11:42:09.581Z,41.61
2018-09-26T11:43:10.081Z,42.35
2018-09-26T11:44:09.799Z,42.21
2018-09-26T11:45:09.856Z,41.72
2018-09-26T11:46:09.613Z,41.79
2018-09-26T11:47:09.849Z,40.98
2018-09-26T11:48:09.588Z,40.74
2018-09-26T11:49:09.740Z,40.18
2018-09-26T11:50:10.070Z,40.69
2018-09-26T11:51:09.734Z,40.72
2018-09-26T11:52:09.835Z,41.38
2018-09-26T11:53:09.707Z,42.75
2018-09-26T11:54:10.184Z,42.48
2018-09-26T11:55:09.753Z,41.33
2018-09-26T11:56:09.817Z,42.67
2018-09-26T11:57:09.870Z,42.48
2018-09-26T11:58:09.559Z,42.86
2018-09-26T11:59:09.824Z,43.11
2018-09-26T12:00:09.692Z,42.81
2018-09-26T12:01:09.693Z,41.32
2018-09-26T12:02:09.743Z,40.19
2018-09-26T12:03:10.034Z,39.89
2018-09-26T12:04:09.819Z,40.4
2018-09-26T12:05:10.045Z,40.68
2018-09-26T12:06:09.739Z,40.45
2018-09-26T12:08:09.900Z,41.29
2018-09-26T12:09:09.730Z,41.82
2018-09-26T12:10:10.045Z,41.68
2018-09-26T12:11:09.798Z,40.89
2018-09-26T12:12:09.698Z,41.9
2018-09-26T12:13:10.027Z,41.74
2018-09-26T12:14:09.801Z,41.37
2018-09-26T12:15:09.894Z,41.89
2018-09-26T12:16:09.533Z,41.96
2018-09-26T12:17:09.590Z,40.86
2018-09-26T12:18:09.663Z,40.53
2018-09-26T12:19:09.820Z,41.39
2018-09-26T12:20:09.813Z,41.14
2018-09-26T12:21:09.612Z,42.07
2018-09-26T12:22:09.629Z,40.79
2018-09-26T12:23:09.636Z,41.31
2018-09-26T12:24:09.613Z,40.74
2018-09-26T12:25:09.827Z,41.33
2018-09-26T12:26:09.979Z,40.45
2018-09-26T12:27:09.976Z,40.98
2018-09-26T12:28:10.541Z,40.97
2018-09-26T12:29:09.672Z,40.85
2018-09-26T12:30:09.809Z,40.97
2018-09-26T12:31:09.757Z,41.01
2018-09-26T12:32:09.814Z,40.92
2018-09-26T12:33:09.859Z,40.48
2018-09-26T12:34:10.151Z,40.26
2018-09-26T12:35:09.662Z,41.2
2018-09-26T12:36:09.562Z,40.46
2018-09-26T12:37:09.488Z,39.63
2018-09-26T12:38:09.645Z,40.07
2018-09-26T12:39:09.524Z,40.46
2018-09-26T12:40:10.141Z,39.79
2018-09-26T12:41:09.692Z,39.81
2018-09-26T12:42:09.770Z,39.78
2018-09-26T12:43:10.270Z,40.17
2018-09-26T12:44:09.666Z,40.83
2018-09-26T12:45:09.800Z,39.92
2018-09-26T12:46:09.763Z,39.74
2018-09-26T12:47:09.711Z,39.69
2018-09-26T12:48:09.702Z,39.8
2018-09-26T12:49:09.505Z,40.06
2018-09-26T12:50:09.512Z,39.85
2018-09-26T12:51:09.657Z,39.73
2018-09-26T12:52:10.063Z,40.01
2018-09-26T12:53:09.678Z,40.05
2018-09-26T12:54:09.635Z,39.63
2018-09-26T12:55:09.954Z,39.76
2018-09-26T12:56:09.996Z,39.29